sensor_id;sensor_type;location;lat;lon;timestamp;P1;durP1;ratioP1;P2;durP2;ratioP2
12976;SDS011;6553;48.412;9.514;2022-10-30T00:00:29;4.72;;;3.33;;
12976;SDS011;6553;48.412;9.514;2022-10-30T00:02:56;3.92;;;3.25;;
12976;SDS011;6553;48.412;9.514;2022-10-30T00:05:21;4.30;;;3.22;;
12976;SDS011;6553;48.412;9.514;2022-10-30T00:07:47;4.80;;;3.08;;
12976;SDS011;6553;48.412;9.514;2022-10-30T00:10:15;4.70;;;3.10;;
12976;SDS011;6553;48.412;9.514;2022-10-30T00:12:42;5.05;;;2.95;;
12976;SDS011;6553;48.412;9.514;2022-10-30T00:15:08;4.25;;;3.03;;
12976;SDS011;6553;48.412;9.514;2022-10-30T00:17:35;3.30;;;3.00;;
12976;SDS011;6553;48.412;9.514;2022-10-30T00:20:01;3.58;;;3.03;;
12976;SDS011;6553;48.412;9.514;2022-10-30T00:22:27;4.22;;;3.53;;
12976;SDS011;6553;48.412;9.514;2022-10-30T00:24:53;5.70;;;3.33;;
12976;SDS011;6553;48.412;9.514;2022-10-30T00:27:19;3.95;;;3.03;;
12976;SDS011;6553;48.412;9.514;2022-10-30T00:29:45;4.50;;;3.15;;
12976;SDS011;6553;48.412;9.514;2022-10-30T00:32:11;5.25;;;3.15;;
12976;SDS011;6553;48.412;9.514;2022-10-30T00:34:37;5.80;;;3.47;;
12976;SDS011;6553;48.412;9.514;2022-10-30T00:37:05;4.32;;;3.13;;
12976;SDS011;6553;48.412;9.514;2022-10-30T00:39:31;3.95;;;3.28;;
12976;SDS011;6553;48.412;9.514;2022-10-30T00:41:57;4.75;;;3.00;;
12976;SDS011;6553;48.412;9.514;2022-10-30T00:44:31;3.25;;;2.70;;
12976;SDS011;6553;48.412;9.514;2022-10-30T00:47:14;4.10;;;2.97;;
12976;SDS011;6553;48.412;9.514;2022-10-30T00:49:54;4.70;;;3.15;;
12976;SDS011;6553;48.412;9.514;2022-10-30T00:52:35;4.25;;;3.10;;
12976;SDS011;6553;48.412;9.514;2022-10-30T00:55:13;4.20;;;3.13;;
12976;SDS011;6553;48.412;9.514;2022-10-30T00:57:46;4.95;;;3.00;;
12976;SDS011;6553;48.412;9.514;2022-10-30T01:00:13;3.80;;;2.80;;
12976;SDS011;6553;48.412;9.514;2022-10-30T01:02:41;4.80;;;2.63;;
12976;SDS011;6553;48.412;9.514;2022-10-30T01:05:09;4.03;;;3.05;;
12976;SDS011;6553;48.412;9.514;2022-10-30T01:07:42;3.33;;;2.70;;
12976;SDS011;6553;48.412;9.514;2022-10-30T01:10:08;3.65;;;2.80;;
12976;SDS011;6553;48.412;9.514;2022-10-30T01:12:36;3.97;;;2.90;;
12976;SDS011;6553;48.412;9.514;2022-10-30T01:15:04;3.20;;;2.85;;
12976;SDS011;6553;48.412;9.514;2022-10-30T01:27:08;3.95;;;2.72;;
12976;SDS011;6553;48.412;9.514;2022-10-30T01:29:49;5.28;;;2.88;;
12976;SDS011;6553;48.412;9.514;2022-10-30T01:32:55;3.80;;;2.92;;
12976;SDS011;6553;48.412;9.514;2022-10-30T01:35:53;4.40;;;2.38;;
12976;SDS011;6553;48.412;9.514;2022-10-30T01:38:56;3.22;;;2.70;;
12976;SDS011;6553;48.412;9.514;2022-10-30T01:41:28;3.25;;;2.95;;
12976;SDS011;6553;48.412;9.514;2022-10-30T01:44:00;4.63;;;2.95;;
12976;SDS011;6553;48.412;9.514;2022-10-30T01:57:57;3.13;;;2.55;;
12976;SDS011;6553;48.412;9.514;2022-10-30T02:00:50;5.32;;;2.95;;
12976;SDS011;6553;48.412;9.514;2022-10-30T02:03:21;6.53;;;3.20;;
12976;SDS011;6553;48.412;9.514;2022-10-30T02:05:48;3.55;;;2.88;;
12976;SDS011;6553;48.412;9.514;2022-10-30T02:08:17;2.95;;;2.40;;
12976;SDS011;6553;48.412;9.514;2022-10-30T02:10:45;2.95;;;2.50;;
12976;SDS011;6553;48.412;9.514;2022-10-30T02:13:13;3.10;;;2.58;;
12976;SDS011;6553;48.412;9.514;2022-10-30T02:15:41;3.83;;;2.65;;
12976;SDS011;6553;48.412;9.514;2022-10-30T02:18:09;3.55;;;2.38;;
12976;SDS011;6553;48.412;9.514;2022-10-30T02:20:35;3.55;;;3.20;;
12976;SDS011;6553;48.412;9.514;2022-10-30T02:23:01;4.25;;;2.88;;
12976;SDS011;6553;48.412;9.514;2022-10-30T02:25:32;4.10;;;2.67;;
12976;SDS011;6553;48.412;9.514;2022-10-30T02:27:59;3.50;;;2.85;;
12976;SDS011;6553;48.412;9.514;2022-10-30T02:30:27;5.25;;;2.40;;
12976;SDS011;6553;48.412;9.514;2022-10-30T02:32:53;3.40;;;2.27;;
12976;SDS011;6553;48.412;9.514;2022-10-30T02:35:19;4.07;;;2.55;;
12976;SDS011;6553;48.412;9.514;2022-10-30T02:37:46;3.47;;;2.90;;
12976;SDS011;6553;48.412;9.514;2022-10-30T02:40:13;3.90;;;2.67;;
12976;SDS011;6553;48.412;9.514;2022-10-30T02:42:39;2.95;;;2.35;;
12976;SDS011;6553;48.412;9.514;2022-10-30T02:45:05;5.10;;;2.53;;
12976;SDS011;6553;48.412;9.514;2022-10-30T02:47:31;3.20;;;2.60;;
12976;SDS011;6553;48.412;9.514;2022-10-30T02:49:58;3.65;;;2.70;;
12976;SDS011;6553;48.412;9.514;2022-10-30T02:52:24;4.10;;;2.70;;
12976;SDS011;6553;48.412;9.514;2022-10-30T02:54:50;4.35;;;3.00;;
12976;SDS011;6553;48.412;9.514;2022-10-30T02:57:16;3.80;;;2.45;;
12976;SDS011;6553;48.412;9.514;2022-10-30T02:59:43;4.60;;;2.88;;
12976;SDS011;6553;48.412;9.514;2022-10-30T03:02:09;3.95;;;2.50;;
12976;SDS011;6553;48.412;9.514;2022-10-30T03:04:34;4.78;;;2.53;;
12976;SDS011;6553;48.412;9.514;2022-10-30T03:07:00;3.22;;;2.50;;
12976;SDS011;6553;48.412;9.514;2022-10-30T03:09:26;4.60;;;3.10;;
12976;SDS011;6553;48.412;9.514;2022-10-30T03:11:52;4.05;;;2.58;;
12976;SDS011;6553;48.412;9.514;2022-10-30T03:14:21;3.15;;;2.42;;
12976;SDS011;6553;48.412;9.514;2022-10-30T03:16:46;3.38;;;2.45;;
12976;SDS011;6553;48.412;9.514;2022-10-30T03:19:14;3.00;;;2.47;;
12976;SDS011;6553;48.412;9.514;2022-10-30T03:21:40;4.85;;;2.53;;
12976;SDS011;6553;48.412;9.514;2022-10-30T03:24:05;2.97;;;2.30;;
12976;SDS011;6553;48.412;9.514;2022-10-30T03:26:32;2.70;;;2.40;;
12976;SDS011;6553;48.412;9.514;2022-10-30T03:29:05;4.38;;;3.10;;
12976;SDS011;6553;48.412;9.514;2022-10-30T03:31:31;3.00;;;2.40;;
12976;SDS011;6553;48.412;9.514;2022-10-30T03:34:17;3.78;;;2.72;;
12976;SDS011;6553;48.412;9.514;2022-10-30T03:36:43;3.78;;;2.58;;
12976;SDS011;6553;48.412;9.514;2022-10-30T03:39:09;4.90;;;2.60;;
12976;SDS011;6553;48.412;9.514;2022-10-30T03:41:36;3.42;;;2.40;;
12976;SDS011;6553;48.412;9.514;2022-10-30T03:44:02;3.78;;;2.80;;
12976;SDS011;6553;48.412;9.514;2022-10-30T03:46:28;3.22;;;2.30;;
12976;SDS011;6553;48.412;9.514;2022-10-30T03:49:04;4.85;;;2.72;;
12976;SDS011;6553;48.412;9.514;2022-10-30T03:51:30;3.08;;;2.53;;
12976;SDS011;6553;48.412;9.514;2022-10-30T03:53:55;3.42;;;2.53;;
12976;SDS011;6553;48.412;9.514;2022-10-30T03:56:21;3.67;;;2.40;;
12976;SDS011;6553;48.412;9.514;2022-10-30T03:58:52;2.58;;;2.25;;
12976;SDS011;6553;48.412;9.514;2022-10-30T04:01:20;4.00;;;2.40;;
12976;SDS011;6553;48.412;9.514;2022-10-30T04:03:52;2.88;;;2.63;;
12976;SDS011;6553;48.412;9.514;2022-10-30T04:06:18;4.18;;;2.60;;
12976;SDS011;6553;48.412;9.514;2022-10-30T04:08:44;3.38;;;2.22;;
12976;SDS011;6553;48.412;9.514;2022-10-30T04:11:09;3.55;;;2.60;;
12976;SDS011;6553;48.412;9.514;2022-10-30T04:13:36;2.50;;;2.28;;
12976;SDS011;6553;48.412;9.514;2022-10-30T04:16:02;4.10;;;2.38;;
12976;SDS011;6553;48.412;9.514;2022-10-30T04:18:31;3.08;;;2.58;;
12976;SDS011;6553;48.412;9.514;2022-10-30T04:20:58;2.47;;;2.28;;
12976;SDS011;6553;48.412;9.514;2022-10-30T04:23:24;2.28;;;2.05;;
12976;SDS011;6553;48.412;9.514;2022-10-30T04:25:50;2.40;;;2.20;;
12976;SDS011;6553;48.412;9.514;2022-10-30T04:28:16;2.88;;;1.90;;
12976;SDS011;6553;48.412;9.514;2022-10-30T04:30:42;3.13;;;2.13;;
12976;SDS011;6553;48.412;9.514;2022-10-30T04:33:10;3.10;;;2.30;;
12976;SDS011;6553;48.412;9.514;2022-10-30T04:35:38;2.97;;;2.42;;
12976;SDS011;6553;48.412;9.514;2022-10-30T04:38:12;3.70;;;2.50;;
12976;SDS011;6553;48.412;9.514;2022-10-30T04:40:41;4.15;;;2.13;;
12976;SDS011;6553;48.412;9.514;2022-10-30T04:43:09;2.47;;;2.20;;
12976;SDS011;6553;48.412;9.514;2022-10-30T04:45:37;2.90;;;2.47;;
12976;SDS011;6553;48.412;9.514;2022-10-30T04:48:06;2.75;;;2.30;;
12976;SDS011;6553;48.412;9.514;2022-10-30T04:50:38;3.55;;;2.42;;
12976;SDS011;6553;48.412;9.514;2022-10-30T04:53:05;3.92;;;2.25;;
12976;SDS011;6553;48.412;9.514;2022-10-30T04:55:35;3.05;;;2.63;;
12976;SDS011;6553;48.412;9.514;2022-10-30T04:58:01;2.20;;;1.80;;
12976;SDS011;6553;48.412;9.514;2022-10-30T05:00:30;3.45;;;2.20;;
12976;SDS011;6553;48.412;9.514;2022-10-30T05:03:04;3.33;;;2.28;;
12976;SDS011;6553;48.412;9.514;2022-10-30T05:05:30;3.75;;;2.20;;
12976;SDS011;6553;48.412;9.514;2022-10-30T05:07:56;3.15;;;2.65;;
12976;SDS011;6553;48.412;9.514;2022-10-30T05:10:22;4.70;;;2.85;;
12976;SDS011;6553;48.412;9.514;2022-10-30T05:12:50;3.25;;;2.30;;
12976;SDS011;6553;48.412;9.514;2022-10-30T05:15:20;3.92;;;2.33;;
12976;SDS011;6553;48.412;9.514;2022-10-30T05:17:49;4.20;;;2.42;;
12976;SDS011;6553;48.412;9.514;2022-10-30T05:20:18;3.50;;;2.35;;
12976;SDS011;6553;48.412;9.514;2022-10-30T05:22:44;3.33;;;2.60;;
12976;SDS011;6553;48.412;9.514;2022-10-30T05:25:10;3.17;;;2.33;;
12976;SDS011;6553;48.412;9.514;2022-10-30T05:27:36;5.07;;;2.42;;
12976;SDS011;6553;48.412;9.514;2022-10-30T05:30:02;4.13;;;2.53;;
12976;SDS011;6553;48.412;9.514;2022-10-30T05:32:28;3.03;;;2.58;;
12976;SDS011;6553;48.412;9.514;2022-10-30T05:34:53;3.33;;;2.50;;
12976;SDS011;6553;48.412;9.514;2022-10-30T05:37:21;3.20;;;2.33;;
12976;SDS011;6553;48.412;9.514;2022-10-30T05:39:47;4.05;;;2.53;;
12976;SDS011;6553;48.412;9.514;2022-10-30T05:42:26;2.55;;;2.28;;
12976;SDS011;6553;48.412;9.514;2022-10-30T05:44:54;2.95;;;2.45;;
12976;SDS011;6553;48.412;9.514;2022-10-30T05:47:20;3.47;;;2.40;;
12976;SDS011;6553;48.412;9.514;2022-10-30T05:49:50;2.97;;;2.22;;
12976;SDS011;6553;48.412;9.514;2022-10-30T05:52:19;3.47;;;2.40;;
12976;SDS011;6553;48.412;9.514;2022-10-30T05:54:47;4.22;;;2.42;;
12976;SDS011;6553;48.412;9.514;2022-10-30T05:57:19;2.88;;;2.22;;
12976;SDS011;6553;48.412;9.514;2022-10-30T05:59:45;2.58;;;2.38;;
12976;SDS011;6553;48.412;9.514;2022-10-30T06:02:11;2.78;;;2.10;;
12976;SDS011;6553;48.412;9.514;2022-10-30T06:04:37;2.22;;;2.03;;
12976;SDS011;6553;48.412;9.514;2022-10-30T06:07:09;4.28;;;2.22;;
12976;SDS011;6553;48.412;9.514;2022-10-30T06:09:35;4.50;;;2.90;;
12976;SDS011;6553;48.412;9.514;2022-10-30T06:12:01;2.85;;;2.53;;
12976;SDS011;6553;48.412;9.514;2022-10-30T06:14:47;3.90;;;2.63;;
12976;SDS011;6553;48.412;9.514;2022-10-30T06:17:13;4.10;;;2.47;;
12976;SDS011;6553;48.412;9.514;2022-10-30T06:19:52;5.90;;;2.35;;
12976;SDS011;6553;48.412;9.514;2022-10-30T06:22:36;3.35;;;2.15;;
12976;SDS011;6553;48.412;9.514;2022-10-30T06:25:11;3.97;;;2.30;;
12976;SDS011;6553;48.412;9.514;2022-10-30T06:27:51;2.70;;;2.33;;
12976;SDS011;6553;48.412;9.514;2022-10-30T06:30:17;2.88;;;2.15;;
12976;SDS011;6553;48.412;9.514;2022-10-30T06:32:44;2.78;;;1.90;;
12976;SDS011;6553;48.412;9.514;2022-10-30T06:35:10;3.25;;;2.47;;
12976;SDS011;6553;48.412;9.514;2022-10-30T06:37:36;4.03;;;2.20;;
12976;SDS011;6553;48.412;9.514;2022-10-30T06:40:08;3.38;;;2.30;;
12976;SDS011;6553;48.412;9.514;2022-10-30T06:42:56;4.57;;;2.67;;
12976;SDS011;6553;48.412;9.514;2022-10-30T06:45:30;3.42;;;1.90;;
12976;SDS011;6553;48.412;9.514;2022-10-30T06:47:57;4.32;;;2.20;;
12976;SDS011;6553;48.412;9.514;2022-10-30T06:50:26;3.92;;;2.25;;
12976;SDS011;6553;48.412;9.514;2022-10-30T06:52:52;2.33;;;1.80;;
12976;SDS011;6553;48.412;9.514;2022-10-30T06:55:19;3.17;;;2.00;;
12976;SDS011;6553;48.412;9.514;2022-10-30T06:58:04;3.55;;;2.53;;
12976;SDS011;6553;48.412;9.514;2022-10-30T07:00:40;4.05;;;2.03;;
12976;SDS011;6553;48.412;9.514;2022-10-30T07:03:24;3.58;;;2.20;;
12976;SDS011;6553;48.412;9.514;2022-10-30T07:05:50;3.45;;;1.92;;
12976;SDS011;6553;48.412;9.514;2022-10-30T07:08:16;2.42;;;2.13;;
12976;SDS011;6553;48.412;9.514;2022-10-30T07:10:42;2.85;;;2.50;;
12976;SDS011;6553;48.412;9.514;2022-10-30T07:13:28;3.05;;;2.47;;
12976;SDS011;6553;48.412;9.514;2022-10-30T07:16:13;4.95;;;2.10;;
12976;SDS011;6553;48.412;9.514;2022-10-30T07:18:41;2.72;;;1.88;;
12976;SDS011;6553;48.412;9.514;2022-10-30T07:21:07;3.25;;;2.30;;
12976;SDS011;6553;48.412;9.514;2022-10-30T07:23:33;2.50;;;1.90;;
12976;SDS011;6553;48.412;9.514;2022-10-30T07:26:17;2.83;;;2.03;;
12976;SDS011;6553;48.412;9.514;2022-10-30T07:28:44;4.25;;;2.08;;
12976;SDS011;6553;48.412;9.514;2022-10-30T07:31:13;3.65;;;1.95;;
12976;SDS011;6553;48.412;9.514;2022-10-30T07:33:44;2.42;;;1.90;;
12976;SDS011;6553;48.412;9.514;2022-10-30T07:36:36;3.85;;;2.40;;
12976;SDS011;6553;48.412;9.514;2022-10-30T07:39:22;4.22;;;2.20;;
12976;SDS011;6553;48.412;9.514;2022-10-30T07:42:09;2.72;;;2.10;;
12976;SDS011;6553;48.412;9.514;2022-10-30T07:44:45;4.22;;;2.13;;
12976;SDS011;6553;48.412;9.514;2022-10-30T07:47:13;3.15;;;1.90;;
12976;SDS011;6553;48.412;9.514;2022-10-30T07:50:01;2.53;;;2.30;;
12976;SDS011;6553;48.412;9.514;2022-10-30T07:52:31;4.13;;;2.13;;
12976;SDS011;6553;48.412;9.514;2022-10-30T07:54:58;2.88;;;2.00;;
12976;SDS011;6553;48.412;9.514;2022-10-30T07:57:42;4.30;;;2.22;;
12976;SDS011;6553;48.412;9.514;2022-10-30T08:00:27;2.70;;;2.05;;
12976;SDS011;6553;48.412;9.514;2022-10-30T08:03:02;2.50;;;2.08;;
12976;SDS011;6553;48.412;9.514;2022-10-30T08:05:35;3.90;;;2.58;;
12976;SDS011;6553;48.412;9.514;2022-10-30T08:08:12;3.00;;;2.00;;
12976;SDS011;6553;48.412;9.514;2022-10-30T08:10:38;4.25;;;2.10;;
12976;SDS011;6553;48.412;9.514;2022-10-30T08:13:04;3.30;;;2.33;;
12976;SDS011;6553;48.412;9.514;2022-10-30T08:15:31;4.10;;;2.63;;
12976;SDS011;6553;48.412;9.514;2022-10-30T08:17:57;5.25;;;2.60;;
12976;SDS011;6553;48.412;9.514;2022-10-30T08:20:24;2.80;;;2.20;;
12976;SDS011;6553;48.412;9.514;2022-10-30T08:22:54;3.55;;;2.17;;
12976;SDS011;6553;48.412;9.514;2022-10-30T08:25:25;3.22;;;2.30;;
12976;SDS011;6553;48.412;9.514;2022-10-30T08:27:54;2.10;;;1.88;;
12976;SDS011;6553;48.412;9.514;2022-10-30T08:30:34;3.95;;;2.40;;
12976;SDS011;6553;48.412;9.514;2022-10-30T08:33:03;4.80;;;2.28;;
12976;SDS011;6553;48.412;9.514;2022-10-30T08:35:58;5.97;;;2.42;;
12976;SDS011;6553;48.412;9.514;2022-10-30T08:38:25;3.40;;;2.67;;
12976;SDS011;6553;48.412;9.514;2022-10-30T08:41:08;5.93;;;2.70;;
12976;SDS011;6553;48.412;9.514;2022-10-30T08:43:40;3.03;;;2.25;;
12976;SDS011;6553;48.412;9.514;2022-10-30T08:46:06;4.25;;;2.60;;
12976;SDS011;6553;48.412;9.514;2022-10-30T08:48:32;3.55;;;2.25;;
12976;SDS011;6553;48.412;9.514;2022-10-30T08:50:57;3.13;;;1.90;;
12976;SDS011;6553;48.412;9.514;2022-10-30T08:53:30;3.35;;;2.40;;
12976;SDS011;6553;48.412;9.514;2022-10-30T08:55:56;3.92;;;2.72;;
12976;SDS011;6553;48.412;9.514;2022-10-30T08:58:34;4.22;;;2.50;;
12976;SDS011;6553;48.412;9.514;2022-10-30T09:01:01;4.25;;;2.50;;
12976;SDS011;6553;48.412;9.514;2022-10-30T09:03:58;4.47;;;2.08;;
12976;SDS011;6553;48.412;9.514;2022-10-30T09:06:53;4.80;;;2.45;;
12976;SDS011;6553;48.412;9.514;2022-10-30T09:09:36;2.92;;;2.30;;
12976;SDS011;6553;48.412;9.514;2022-10-30T09:12:03;2.83;;;2.25;;
12976;SDS011;6553;48.412;9.514;2022-10-30T09:14:35;2.83;;;2.08;;
12976;SDS011;6553;48.412;9.514;2022-10-30T09:17:02;4.20;;;2.63;;
12976;SDS011;6553;48.412;9.514;2022-10-30T09:19:29;3.97;;;2.30;;
12976;SDS011;6553;48.412;9.514;2022-10-30T09:21:56;4.15;;;2.70;;
12976;SDS011;6553;48.412;9.514;2022-10-30T09:24:22;3.63;;;2.95;;
12976;SDS011;6553;48.412;9.514;2022-10-30T09:26:48;5.47;;;2.92;;
12976;SDS011;6553;48.412;9.514;2022-10-30T09:29:22;4.22;;;2.70;;
12976;SDS011;6553;48.412;9.514;2022-10-30T09:32:00;3.20;;;2.40;;
12976;SDS011;6553;48.412;9.514;2022-10-30T09:34:30;5.25;;;2.38;;
12976;SDS011;6553;48.412;9.514;2022-10-30T09:37:03;4.10;;;2.55;;
12976;SDS011;6553;48.412;9.514;2022-10-30T09:39:33;3.22;;;2.58;;
12976;SDS011;6553;48.412;9.514;2022-10-30T09:42:13;4.07;;;2.50;;
12976;SDS011;6553;48.412;9.514;2022-10-30T09:50:56;4.60;;;2.40;;
12976;SDS011;6553;48.412;9.514;2022-10-30T09:57:08;4.20;;;2.45;;
12976;SDS011;6553;48.412;9.514;2022-10-30T10:00:07;3.40;;;2.25;;
12976;SDS011;6553;48.412;9.514;2022-10-30T10:08:50;4.43;;;2.55;;
12976;SDS011;6553;48.412;9.514;2022-10-30T10:11:50;4.97;;;3.03;;
12976;SDS011;6553;48.412;9.514;2022-10-30T10:14:27;5.30;;;3.03;;
12976;SDS011;6553;48.412;9.514;2022-10-30T10:16:58;3.50;;;2.47;;
12976;SDS011;6553;48.412;9.514;2022-10-30T10:19:32;3.65;;;2.53;;
12976;SDS011;6553;48.412;9.514;2022-10-30T10:24:50;3.47;;;2.58;;
12976;SDS011;6553;48.412;9.514;2022-10-30T10:27:24;4.05;;;2.50;;
12976;SDS011;6553;48.412;9.514;2022-10-30T10:30:15;3.38;;;2.45;;
12976;SDS011;6553;48.412;9.514;2022-10-30T10:36:03;3.25;;;2.42;;
12976;SDS011;6553;48.412;9.514;2022-10-30T10:42:08;4.32;;;2.55;;
12976;SDS011;6553;48.412;9.514;2022-10-30T10:47:58;5.20;;;2.75;;
12976;SDS011;6553;48.412;9.514;2022-10-30T10:53:23;4.45;;;2.55;;
12976;SDS011;6553;48.412;9.514;2022-10-30T10:56:31;4.53;;;2.47;;
12976;SDS011;6553;48.412;9.514;2022-10-30T10:59:03;4.72;;;2.45;;
12976;SDS011;6553;48.412;9.514;2022-10-30T11:02:10;5.10;;;2.30;;
12976;SDS011;6553;48.412;9.514;2022-10-30T11:08:21;3.63;;;2.25;;
12976;SDS011;6553;48.412;9.514;2022-10-30T11:11:05;8.20;;;2.58;;
12976;SDS011;6553;48.412;9.514;2022-10-30T11:13:35;4.03;;;2.22;;
12976;SDS011;6553;48.412;9.514;2022-10-30T11:16:24;6.43;;;2.20;;
12976;SDS011;6553;48.412;9.514;2022-10-30T11:19:17;4.15;;;2.33;;
12976;SDS011;6553;48.412;9.514;2022-10-30T11:21:45;3.35;;;2.03;;
12976;SDS011;6553;48.412;9.514;2022-10-30T11:24:31;2.88;;;2.08;;
12976;SDS011;6553;48.412;9.514;2022-10-30T11:29:49;3.75;;;2.38;;
12976;SDS011;6553;48.412;9.514;2022-10-30T11:32:28;4.60;;;2.20;;
12976;SDS011;6553;48.412;9.514;2022-10-30T11:35:01;4.72;;;2.25;;
12976;SDS011;6553;48.412;9.514;2022-10-30T11:37:34;6.07;;;2.10;;
12976;SDS011;6553;48.412;9.514;2022-10-30T11:45:15;4.03;;;2.22;;
12976;SDS011;6553;48.412;9.514;2022-10-30T11:47:55;4.25;;;2.38;;
12976;SDS011;6553;48.412;9.514;2022-10-30T11:50:28;4.28;;;2.50;;
12976;SDS011;6553;48.412;9.514;2022-10-30T11:52:56;4.70;;;2.45;;
12976;SDS011;6553;48.412;9.514;2022-10-30T11:55:40;2.70;;;2.10;;
12976;SDS011;6553;48.412;9.514;2022-10-30T11:58:28;2.60;;;2.00;;
12976;SDS011;6553;48.412;9.514;2022-10-30T12:00:59;2.75;;;1.73;;
12976;SDS011;6553;48.412;9.514;2022-10-30T12:03:41;3.30;;;2.17;;
12976;SDS011;6553;48.412;9.514;2022-10-30T12:09:01;3.70;;;1.95;;
12976;SDS011;6553;48.412;9.514;2022-10-30T12:11:34;4.55;;;2.20;;
12976;SDS011;6553;48.412;9.514;2022-10-30T12:14:03;4.78;;;2.10;;
12976;SDS011;6553;48.412;9.514;2022-10-30T12:16:30;5.00;;;2.17;;
12976;SDS011;6553;48.412;9.514;2022-10-30T12:19:04;4.38;;;2.35;;
12976;SDS011;6553;48.412;9.514;2022-10-30T12:21:40;3.70;;;1.92;;
12976;SDS011;6553;48.412;9.514;2022-10-30T12:24:22;3.75;;;2.03;;
12976;SDS011;6553;48.412;9.514;2022-10-30T12:27:02;3.22;;;1.80;;
12976;SDS011;6553;48.412;9.514;2022-10-30T12:29:59;3.47;;;1.92;;
12976;SDS011;6553;48.412;9.514;2022-10-30T12:32:51;5.13;;;2.30;;
12976;SDS011;6553;48.412;9.514;2022-10-30T12:35:35;2.92;;;2.30;;
12976;SDS011;6553;48.412;9.514;2022-10-30T12:38:00;4.53;;;2.35;;
12976;SDS011;6553;48.412;9.514;2022-10-30T12:43:40;2.92;;;1.90;;
12976;SDS011;6553;48.412;9.514;2022-10-30T12:46:14;2.92;;;2.08;;
12976;SDS011;6553;48.412;9.514;2022-10-30T12:48:51;3.63;;;2.35;;
12976;SDS011;6553;48.412;9.514;2022-10-30T12:51:39;3.80;;;2.15;;
12976;SDS011;6553;48.412;9.514;2022-10-30T12:57:11;3.28;;;1.98;;
12976;SDS011;6553;48.412;9.514;2022-10-30T12:59:50;4.65;;;2.13;;
12976;SDS011;6553;48.412;9.514;2022-10-30T13:02:35;3.65;;;1.50;;
12976;SDS011;6553;48.412;9.514;2022-10-30T13:05:16;5.57;;;2.10;;
12976;SDS011;6553;48.412;9.514;2022-10-30T13:11:01;3.85;;;1.95;;
12976;SDS011;6553;48.412;9.514;2022-10-30T13:13:47;3.28;;;2.00;;
12976;SDS011;6553;48.412;9.514;2022-10-30T13:16:25;4.32;;;1.67;;
12976;SDS011;6553;48.412;9.514;2022-10-30T13:18:58;5.68;;;1.88;;
12976;SDS011;6553;48.412;9.514;2022-10-30T13:21:27;4.03;;;1.70;;
12976;SDS011;6553;48.412;9.514;2022-10-30T13:24:10;4.88;;;1.75;;
12976;SDS011;6553;48.412;9.514;2022-10-30T13:29:32;3.90;;;1.95;;
12976;SDS011;6553;48.412;9.514;2022-10-30T13:40:59;3.63;;;2.10;;
12976;SDS011;6553;48.412;9.514;2022-10-30T13:44:48;4.82;;;1.83;;
12976;SDS011;6553;48.412;9.514;2022-10-30T13:52:53;3.63;;;1.77;;
12976;SDS011;6553;48.412;9.514;2022-10-30T13:55:25;3.90;;;2.10;;
12976;SDS011;6553;48.412;9.514;2022-10-30T14:01:12;3.60;;;1.77;;
12976;SDS011;6553;48.412;9.514;2022-10-30T14:09:55;2.78;;;1.60;;
12976;SDS011;6553;48.412;9.514;2022-10-30T14:20:38;4.60;;;2.00;;
12976;SDS011;6553;48.412;9.514;2022-10-30T14:23:14;2.67;;;1.80;;
12976;SDS011;6553;48.412;9.514;2022-10-30T14:28:30;4.03;;;1.70;;
12976;SDS011;6553;48.412;9.514;2022-10-30T14:31:07;4.57;;;2.40;;
12976;SDS011;6553;48.412;9.514;2022-10-30T14:33:48;4.47;;;2.17;;
12976;SDS011;6553;48.412;9.514;2022-10-30T14:39:24;4.13;;;2.10;;
12976;SDS011;6553;48.412;9.514;2022-10-30T14:42:04;3.17;;;2.05;;
12976;SDS011;6553;48.412;9.514;2022-10-30T14:57:19;2.53;;;1.60;;
12976;SDS011;6553;48.412;9.514;2022-10-30T15:05:43;2.92;;;1.80;;
12976;SDS011;6553;48.412;9.514;2022-10-30T15:14:11;4.45;;;1.92;;
12976;SDS011;6553;48.412;9.514;2022-10-30T15:16:55;5.15;;;2.20;;
12976;SDS011;6553;48.412;9.514;2022-10-30T15:19:21;4.70;;;2.67;;
12976;SDS011;6553;48.412;9.514;2022-10-30T15:21:50;5.15;;;3.03;;
12976;SDS011;6553;48.412;9.514;2022-10-30T15:24:19;5.32;;;2.67;;
12976;SDS011;6553;48.412;9.514;2022-10-30T15:26:52;4.28;;;2.60;;
12976;SDS011;6553;48.412;9.514;2022-10-30T15:29:26;4.82;;;2.20;;
12976;SDS011;6553;48.412;9.514;2022-10-30T15:32:01;6.72;;;2.78;;
12976;SDS011;6553;48.412;9.514;2022-10-30T15:34:39;2.97;;;2.50;;
12976;SDS011;6553;48.412;9.514;2022-10-30T15:37:11;3.42;;;1.90;;
12976;SDS011;6553;48.412;9.514;2022-10-30T15:39:37;3.28;;;2.30;;
12976;SDS011;6553;48.412;9.514;2022-10-30T15:42:03;4.70;;;2.30;;
12976;SDS011;6553;48.412;9.514;2022-10-30T15:44:29;2.55;;;2.05;;
12976;SDS011;6553;48.412;9.514;2022-10-30T15:46:59;3.05;;;2.10;;
12976;SDS011;6553;48.412;9.514;2022-10-30T15:49:29;3.95;;;2.25;;
12976;SDS011;6553;48.412;9.514;2022-10-30T15:51:59;3.75;;;1.98;;
12976;SDS011;6553;48.412;9.514;2022-10-30T15:54:35;5.10;;;2.45;;
12976;SDS011;6553;48.412;9.514;2022-10-30T15:57:18;3.38;;;2.10;;
12976;SDS011;6553;48.412;9.514;2022-10-30T15:59:54;3.17;;;1.80;;
12976;SDS011;6553;48.412;9.514;2022-10-30T16:02:24;5.97;;;2.30;;
12976;SDS011;6553;48.412;9.514;2022-10-30T16:04:53;4.70;;;2.35;;
12976;SDS011;6553;48.412;9.514;2022-10-30T16:09:54;6.65;;;3.45;;
12976;SDS011;6553;48.412;9.514;2022-10-30T16:12:29;7.75;;;4.55;;
12976;SDS011;6553;48.412;9.514;2022-10-30T16:15:00;9.98;;;6.85;;
12976;SDS011;6553;48.412;9.514;2022-10-30T16:17:33;9.55;;;7.15;;
12976;SDS011;6553;48.412;9.514;2022-10-30T16:19:59;9.07;;;5.82;;
12976;SDS011;6553;48.412;9.514;2022-10-30T16:22:32;12.00;;;7.72;;
12976;SDS011;6553;48.412;9.514;2022-10-30T16:25:06;7.72;;;5.78;;
12976;SDS011;6553;48.412;9.514;2022-10-30T16:27:43;7.32;;;6.07;;
12976;SDS011;6553;48.412;9.514;2022-10-30T16:30:13;8.50;;;6.03;;
12976;SDS011;6553;48.412;9.514;2022-10-30T16:32:40;7.63;;;5.60;;
12976;SDS011;6553;48.412;9.514;2022-10-30T16:35:16;7.28;;;5.30;;
12976;SDS011;6553;48.412;9.514;2022-10-30T16:37:46;5.20;;;4.53;;
12976;SDS011;6553;48.412;9.514;2022-10-30T16:40:15;6.38;;;4.97;;
12976;SDS011;6553;48.412;9.514;2022-10-30T16:42:49;6.15;;;4.68;;
12976;SDS011;6553;48.412;9.514;2022-10-30T16:47:51;6.68;;;4.30;;
12976;SDS011;6553;48.412;9.514;2022-10-30T16:50:31;6.43;;;4.88;;
12976;SDS011;6553;48.412;9.514;2022-10-30T16:53:10;7.43;;;4.53;;
12976;SDS011;6553;48.412;9.514;2022-10-30T16:55:47;6.35;;;4.53;;
12976;SDS011;6553;48.412;9.514;2022-10-30T16:58:13;7.07;;;4.50;;
12976;SDS011;6553;48.412;9.514;2022-10-30T17:00:47;6.82;;;4.03;;
12976;SDS011;6553;48.412;9.514;2022-10-30T17:03:17;5.93;;;4.30;;
12976;SDS011;6553;48.412;9.514;2022-10-30T17:06:02;5.05;;;4.38;;
12976;SDS011;6553;48.412;9.514;2022-10-30T17:08:41;5.60;;;5.05;;
12976;SDS011;6553;48.412;9.514;2022-10-30T17:11:17;6.80;;;5.00;;
12976;SDS011;6553;48.412;9.514;2022-10-30T17:13:58;6.22;;;4.38;;
12976;SDS011;6553;48.412;9.514;2022-10-30T17:16:28;5.18;;;4.68;;
12976;SDS011;6553;48.412;9.514;2022-10-30T17:18:57;5.70;;;4.55;;
12976;SDS011;6553;48.412;9.514;2022-10-30T17:21:45;6.70;;;4.30;;
12976;SDS011;6553;48.412;9.514;2022-10-30T17:24:31;6.18;;;4.88;;
12976;SDS011;6553;48.412;9.514;2022-10-30T17:27:06;8.10;;;4.30;;
12976;SDS011;6553;48.412;9.514;2022-10-30T17:29:52;7.60;;;4.60;;
12976;SDS011;6553;48.412;9.514;2022-10-30T17:32:19;5.55;;;4.78;;
12976;SDS011;6553;48.412;9.514;2022-10-30T17:35:14;8.55;;;4.93;;
12976;SDS011;6553;48.412;9.514;2022-10-30T17:37:43;6.25;;;4.93;;
12976;SDS011;6553;48.412;9.514;2022-10-30T17:40:09;5.40;;;4.75;;
12976;SDS011;6553;48.412;9.514;2022-10-30T17:42:37;6.65;;;4.57;;
12976;SDS011;6553;48.412;9.514;2022-10-30T17:45:04;6.38;;;4.40;;
12976;SDS011;6553;48.412;9.514;2022-10-30T17:47:34;5.78;;;4.18;;
12976;SDS011;6553;48.412;9.514;2022-10-30T17:50:01;6.85;;;4.85;;
12976;SDS011;6553;48.412;9.514;2022-10-30T17:52:29;6.32;;;4.82;;
12976;SDS011;6553;48.412;9.514;2022-10-30T17:54:57;7.47;;;4.55;;
12976;SDS011;6553;48.412;9.514;2022-10-30T17:57:23;7.30;;;4.60;;
12976;SDS011;6553;48.412;9.514;2022-10-30T17:59:51;5.93;;;4.70;;